Time;durP1;ratioP1;P1;durP2;ratioP2;P2;SDS_P1;SDS_P2;PMS_P1;PMS_P2;Temp;Humidity;BMP_temperature;BMP_pressure;BME280_temperature;BME280_humidity;BME280_pressure;Samples;Min_cycle;Max_cycle;Signal;HPM_P1;HPM_P2
2023/08/14 00:00:58;;;;;;;16.23;12.13;;;18.00;99.90;;;;;;5082354;28;20056;-89
2023/08/14 00:03:45;;;;;;;16.50;11.90;;;17.90;99.90;;;;;;5064800;28;20512;-90
2023/08/14 00:06:32;;;;;;;15.88;12.55;;;18.00;99.90;;;;;;5100657;28;20048;-90
2023/08/14 00:09:20;;;;;;;16.40;12.02;;;18.10;99.90;;;;;;5067729;28;20040;-90
2023/08/14 00:12:07;;;;;;;15.63;12.05;;;18.10;99.90;;;;;;5084809;28;20122;-90
2023/08/14 00:14:55;;;;;;;17.67;12.20;;;18.10;99.90;;;;;;5083324;28;20040;-86
2023/08/14 00:17:42;;;;;;;15.77;11.60;;;18.10;99.90;;;;;;5083067;28;20053;-89
2023/08/14 00:20:30;;;;;;;16.20;11.32;;;18.10;99.90;;;;;;5088267;28;20041;-90
2023/08/14 00:23:17;;;;;;;15.15;10.90;;;18.10;99.90;;;;;;5090749;28;20045;-89
2023/08/14 00:26:04;;;;;;;12.88;10.70;;;18.00;99.90;;;;;;5074454;28;20104;-89
2023/08/14 00:28:54;;;;;;;12.82;11.50;;;18.10;99.90;;;;;;5080194;28;20061;-86
2023/08/14 00:31:43;;;;;;;12.30;10.35;;;18.10;99.90;;;;;;5077824;28;20047;-90
2023/08/14 00:34:30;;;;;;;17.00;11.23;;;18.10;99.90;;;;;;5077037;28;20052;-90
2023/08/14 00:37:18;;;;;;;17.33;11.68;;;18.20;99.90;;;;;;5085339;28;20104;-88
2023/08/14 00:40:07;;;;;;;15.63;12.40;;;18.30;99.90;;;;;;5078024;28;20056;-89
2023/08/14 00:42:56;;;;;;;16.65;11.75;;;18.30;99.90;;;;;;5093337;28;20048;-88
2023/08/14 00:45:43;;;;;;;17.25;12.23;;;18.40;99.90;;;;;;5085313;28;20045;-90
2023/08/14 00:48:34;;;;;;;13.80;10.60;;;18.40;99.90;;;;;;5081122;28;20063;-88
2023/08/14 00:51:23;;;;;;;20.77;12.10;;;18.40;99.90;;;;;;5081052;28;20052;-85
2023/08/14 00:54:10;;;;;;;21.42;12.40;;;18.50;99.90;;;;;;5077837;28;20100;-89
2023/08/14 00:56:57;;;;;;;13.48;11.43;;;18.50;99.90;;;;;;5081367;28;20044;-89
2023/08/14 00:59:46;;;;;;;15.75;11.55;;;18.60;99.90;;;;;;5089330;28;20102;-89
2023/08/14 01:02:36;;;;;;;14.82;12.57;;;18.50;99.90;;;;;;5086167;28;20048;-89
2023/08/14 01:05:24;;;;;;;13.40;11.68;;;18.40;99.90;;;;;;5073558;28;20319;-88
2023/08/14 01:08:14;;;;;;;16.88;11.18;;;18.40;99.90;;;;;;5066928;28;20044;-88
2023/08/14 01:11:02;;;;;;;13.25;10.85;;;18.40;99.90;;;;;;5076008;28;20049;-89
2023/08/14 01:14:07;;;;;;;14.68;10.20;;;18.50;99.90;;;;;;5068994;28;20044;-89
2023/08/14 01:16:59;;;;;;;13.38;10.35;;;18.60;99.90;;;;;;5072598;28;20049;-88
2023/08/14 01:19:51;;;;;;;11.65;10.00;;;18.80;99.90;;;;;;5086538;28;20083;-90
2023/08/14 01:23:02;;;;;;;11.98;9.85;;;18.70;99.90;;;;;;5079769;28;20041;-89
2023/08/14 01:25:51;;;;;;;15.53;11.07;;;18.60;99.90;;;;;;5085093;28;20048;-86
2023/08/14 01:28:39;;;;;;;13.85;10.38;;;19.00;99.90;;;;;;5098146;28;20032;-88
2023/08/14 01:31:29;;;;;;;14.13;9.48;;;19.20;99.90;;;;;;5093437;28;20029;-85
2023/08/14 01:34:16;;;;;;;15.48;8.10;;;19.30;99.90;;;;;;5086471;28;20024;-86
2023/08/14 01:37:22;;;;;;;24.35;7.28;;;19.20;99.90;;;;;;5086285;28;20052;-87
2023/08/14 01:40:31;;;;;;;23.92;6.60;;;18.80;99.90;;;;;;5077857;28;20033;-85
2023/08/14 01:43:27;;;;;;;10.63;5.85;;;18.70;99.90;;;;;;5102824;28;20074;-88
2023/08/14 01:46:17;;;;;;;14.05;5.75;;;18.60;99.90;;;;;;5109837;28;20029;-88
2023/08/14 01:49:07;;;;;;;8.13;5.43;;;18.60;99.90;;;;;;5092256;28;20043;-87
2023/08/14 01:51:55;;;;;;;10.75;5.90;;;18.60;99.90;;;;;;5096840;28;20024;-87
2023/08/14 01:54:42;;;;;;;7.32;5.22;;;18.60;99.90;;;;;;5103912;28;20040;-84
2023/08/14 01:57:31;;;;;;;8.73;5.55;;;18.60;99.90;;;;;;5084376;28;20044;-86
2023/08/14 02:00:21;;;;;;;13.60;5.88;;;18.50;99.90;;;;;;5086615;28;20088;-87
2023/08/14 02:03:08;;;;;;;9.27;5.93;;;18.50;99.90;;;;;;5076493;28;20048;-86
2023/08/14 02:05:56;;;;;;;7.05;6.13;;;18.50;99.90;;;;;;5102279;28;20391;-89
2023/08/14 02:08:43;;;;;;;11.18;5.95;;;18.50;99.90;;;;;;5103513;28;20036;-84
2023/08/14 02:11:30;;;;;;;9.85;5.90;;;18.50;99.90;;;;;;5079640;28;20028;-84
2023/08/14 02:14:17;;;;;;;12.32;6.80;;;18.50;99.90;;;;;;5074295;28;20044;-87
2023/08/14 02:17:05;;;;;;;11.02;6.72;;;18.50;99.90;;;;;;5096795;28;20028;-83
2023/08/14 02:19:52;;;;;;;13.35;8.32;;;18.40;99.90;;;;;;5097386;28;20040;-84
2023/08/14 02:22:39;;;;;;;15.02;7.82;;;18.50;99.90;;;;;;5097755;28;20029;-86
2023/08/14 02:25:27;;;;;;;13.40;7.43;;;18.40;99.90;;;;;;5094721;28;20051;-83
2023/08/14 02:28:14;;;;;;;9.00;7.05;;;18.30;99.90;;;;;;5077692;28;20093;-86
2023/08/14 02:31:03;;;;;;;13.77;7.30;;;18.30;99.90;;;;;;5093489;28;20191;-85
2023/08/14 02:33:50;;;;;;;11.73;7.55;;;18.20;99.90;;;;;;5085182;28;20117;-85
2023/08/14 02:36:38;;;;;;;11.85;6.60;;;18.30;99.90;;;;;;5085204;28;20055;-86
2023/08/14 02:39:25;;;;;;;9.13;7.30;;;18.20;99.90;;;;;;5077904;28;20049;-85
2023/08/14 02:42:15;;;;;;;10.68;6.57;;;18.10;99.90;;;;;;5082602;28;20060;-85
2023/08/14 02:45:06;;;;;;;11.15;6.28;;;18.10;99.90;;;;;;5058448;28;20073;-84
2023/08/14 02:47:55;;;;;;;10.77;6.47;;;18.10;99.90;;;;;;5080561;28;20052;-86
2023/08/14 02:50:42;;;;;;;10.32;6.55;;;18.00;99.90;;;;;;5082436;28;20115;-87
2023/08/14 02:53:30;;;;;;;9.15;6.18;;;18.00;99.90;;;;;;5055210;28;20040;-85
2023/08/14 02:56:20;;;;;;;10.57;6.78;;;18.00;99.90;;;;;;5083052;28;20044;-86
2023/08/14 02:59:07;;;;;;;11.45;6.75;;;18.00;99.90;;;;;;5083181;28;20041;-86
2023/08/14 03:01:54;;;;;;;9.95;6.68;;;18.00;99.90;;;;;;5067630;28;20045;-87
2023/08/14 03:04:44;;;;;;;8.52;5.93;;;18.00;99.90;;;;;;5072717;28;20063;-86
2023/08/14 03:07:31;;;;;;;14.05;7.45;;;17.90;99.90;;;;;;5086035;28;20041;-86
2023/08/14 03:10:19;;;;;;;14.90;7.30;;;17.80;99.90;;;;;;5072590;28;20036;-86
2023/08/14 03:13:06;;;;;;;18.88;7.97;;;17.80;99.90;;;;;;5073376;28;20040;-86
2023/08/14 03:15:53;;;;;;;13.25;7.45;;;17.70;99.90;;;;;;5080274;28;20374;-85
2023/08/14 03:18:41;;;;;;;10.85;7.72;;;17.70;99.90;;;;;;5082770;28;20044;-85
2023/08/14 03:21:28;;;;;;;9.90;8.02;;;17.70;99.90;;;;;;5068280;28;20359;-85
2023/08/14 03:24:17;;;;;;;15.18;9.38;;;17.60;99.90;;;;;;5064929;28;20055;-86
2023/08/14 03:27:05;;;;;;;11.55;8.60;;;17.70;99.90;;;;;;5072412;28;20465;-87
2023/08/14 03:29:52;;;;;;;14.18;10.82;;;17.60;99.90;;;;;;5075162;28;20060;-85
2023/08/14 03:32:41;;;;;;;20.23;11.93;;;17.60;99.90;;;;;;5063913;28;20055;-86
2023/08/14 03:35:29;;;;;;;14.50;9.95;;;17.50;99.90;;;;;;5056622;28;20045;-85
2023/08/14 03:38:16;;;;;;;16.77;10.90;;;17.30;99.90;;;;;;5074922;28;20466;-86
2023/08/14 03:41:04;;;;;;;15.93;10.85;;;17.30;99.90;;;;;;5055901;28;20052;-86
2023/08/14 03:43:51;;;;;;;12.68;9.35;;;17.20;99.90;;;;;;5058738;28;20056;-87
2023/08/14 03:46:41;;;;;;;20.55;10.55;;;17.30;99.90;;;;;;5080488;28;20495;-86
2023/08/14 03:49:28;;;;;;;13.30;9.63;;;17.30;99.90;;;;;;5091749;28;20044;-86
2023/08/14 03:52:18;;;;;;;12.85;7.72;;;17.20;99.90;;;;;;5077055;28;20519;-86
2023/08/14 03:55:06;;;;;;;10.43;7.07;;;17.30;99.90;;;;;;5068102;28;20044;-86
2023/08/14 03:57:56;;;;;;;14.80;7.20;;;17.30;99.90;;;;;;5078913;28;20052;-86
2023/08/14 04:00:43;;;;;;;10.82;7.25;;;17.30;99.90;;;;;;5083802;28;20044;-85
2023/08/14 04:03:45;;;;;;;11.70;7.20;;;17.20;99.90;;;;;;5076186;28;20488;-86
2023/08/14 04:06:36;;;;;;;10.88;7.60;;;17.20;99.90;;;;;;5073549;28;20386;-85
2023/08/14 04:09:23;;;;;;;10.55;7.32;;;17.20;99.90;;;;;;5075120;28;20066;-86
2023/08/14 04:12:10;;;;;;;12.27;8.93;;;17.20;99.90;;;;;;5084376;28;20096;-86
2023/08/14 04:15:15;;;;;;;16.52;8.27;;;17.10;99.90;;;;;;5090374;28;20060;-86
2023/08/14 04:18:02;;;;;;;12.70;9.05;;;17.20;99.90;;;;;;5077556;28;20484;-86
2023/08/14 04:20:50;;;;;;;14.38;9.32;;;17.20;99.90;;;;;;5081794;28;20075;-86
2023/08/14 04:23:39;;;;;;;14.80;8.50;;;17.10;99.90;;;;;;5082829;28;20147;-87
2023/08/14 04:26:27;;;;;;;13.13;8.65;;;17.00;99.90;;;;;;5093525;28;20063;-86
2023/08/14 04:29:16;;;;;;;10.13;8.43;;;17.00;99.90;;;;;;5075597;28;20044;-85
2023/08/14 04:32:03;;;;;;;12.40;8.68;;;17.00;99.90;;;;;;5084260;28;20071;-85
2023/08/14 04:34:51;;;;;;;18.45;11.75;;;17.10;99.90;;;;;;5068112;28;20036;-88
2023/08/14 04:37:38;;;;;;;18.70;12.93;;;17.20;99.90;;;;;;5064451;28;20398;-88
2023/08/14 04:40:25;;;;;;;14.93;11.02;;;17.20;99.90;;;;;;5057597;28;20045;-87
2023/08/14 04:43:12;;;;;;;14.25;10.13;;;17.20;99.90;;;;;;5061049;28;20055;-88
2023/08/14 04:46:11;;;;;;;13.43;9.10;;;17.20;99.90;;;;;;5060593;28;20074;-88
2023/08/14 04:48:59;;;;;;;12.55;9.10;;;17.20;99.90;;;;;;5081512;28;20374;-87
2023/08/14 04:51:47;;;;;;;15.05;9.27;;;17.20;99.90;;;;;;5049801;28;20041;-88
2023/08/14 04:54:36;;;;;;;12.55;9.00;;;17.30;99.90;;;;;;5054449;28;20049;-88
2023/08/14 04:57:24;;;;;;;13.75;9.15;;;17.30;99.90;;;;;;5069758;28;20053;-84
2023/08/14 05:05:28;;;;;;;14.77;9.95;;;17.30;99.90;;;;;;4982086;28;20058;-86
2023/08/14 05:08:15;;;;;;;15.50;10.98;;;17.40;99.90;;;;;;4955304;28;20054;-88
2023/08/14 05:11:05;;;;;;;20.85;13.45;;;17.40;99.90;;;;;;4928411;28;20342;-87
2023/08/14 05:13:52;;;;;;;16.80;12.18;;;17.40;99.90;;;;;;4928954;29;20051;-87
2023/08/14 05:16:39;;;;;;;18.55;11.82;;;17.50;99.90;;;;;;4936420;29;20051;-86
2023/08/14 05:19:29;;;;;;;14.27;11.80;;;17.60;99.90;;;;;;4931491;29;20055;-86
2023/08/14 05:22:16;;;;;;;14.70;11.05;;;17.80;99.90;;;;;;4927814;29;20059;-87
2023/08/14 05:25:10;;;;;;;18.23;10.15;;;17.90;99.90;;;;;;4940158;29;20158;-86
2023/08/14 05:27:57;;;;;;;12.48;9.98;;;18.00;99.90;;;;;;4930975;29;20477;-87
2023/08/14 05:30:45;;;;;;;12.60;9.10;;;18.00;99.90;;;;;;4938210;28;20052;-86
2023/08/14 05:33:32;;;;;;;9.60;7.85;;;18.20;99.90;;;;;;4933555;29;20346;-84
2023/08/14 05:36:19;;;;;;;11.77;8.88;;;18.20;99.90;;;;;;4933786;29;20044;-85
2023/08/14 05:39:09;;;;;;;14.48;9.75;;;18.20;99.90;;;;;;4935414;29;20078;-84
2023/08/14 05:41:57;;;;;;;14.45;10.02;;;18.10;99.90;;;;;;4935611;29;20051;-86
2023/08/14 05:44:44;;;;;;;14.90;10.57;;;18.10;99.90;;;;;;4931726;29;20047;-88
2023/08/14 05:47:31;;;;;;;14.45;9.80;;;18.10;99.90;;;;;;4921197;29;20126;-87
2023/08/14 05:50:20;;;;;;;12.60;9.07;;;18.10;99.90;;;;;;4930393;29;20052;-88
2023/08/14 05:53:11;;;;;;;10.70;8.35;;;18.10;99.90;;;;;;4935962;29;20508;-89
2023/08/14 05:55:59;;;;;;;11.25;8.13;;;18.10;99.90;;;;;;4931369;29;20052;-88
2023/08/14 05:58:46;;;;;;;9.23;8.10;;;18.10;99.90;;;;;;4932047;29;20052;-88
2023/08/14 06:01:39;;;;;;;11.48;7.50;;;18.20;99.90;;;;;;4936085;29;20067;-89
2023/08/14 06:04:27;;;;;;;10.25;8.77;;;18.30;99.90;;;;;;4934262;29;20127;-88
2023/08/14 06:07:16;;;;;;;11.60;7.97;;;18.40;99.90;;;;;;4918693;29;20044;-87
2023/08/14 06:10:07;;;;;;;11.27;8.90;;;18.40;99.90;;;;;;4923041;29;20048;-86
2023/08/14 06:12:54;;;;;;;11.68;8.55;;;18.50;99.90;;;;;;4957985;28;20066;-86
2023/08/14 06:15:46;;;;;;;12.82;9.15;;;18.60;99.90;;;;;;4940980;29;20054;-87
2023/08/14 06:18:33;;;;;;;12.23;9.70;;;18.60;99.90;;;;;;4956672;28;20050;-90
2023/08/14 06:21:34;;;;;;;9.82;8.80;;;18.60;99.90;;;;;;4937813;29;20047;-89
2023/08/14 06:24:31;;;;;;;10.68;7.93;;;18.60;99.90;;;;;;4946022;28;20047;-90
2023/08/14 06:27:27;;;;;;;13.88;7.13;;;18.60;99.90;;;;;;4942569;28;20132;-90
2023/08/14 06:30:23;;;;;;;9.65;6.90;;;18.60;99.90;;;;;;4966505;28;20121;-90
2023/08/14 06:33:33;;;;;;;9.45;6.80;;;18.60;99.90;;;;;;4946184;29;20062;-87
2023/08/14 06:36:27;;;;;;;15.30;7.85;;;18.70;99.90;;;;;;4958975;28;20051;-88
2023/08/14 06:39:24;;;;;;;;;;;;;;;;;;;;;
2023/08/14 06:42:16;;;;;;;9.20;6.75;;;19.00;99.90;;;;;;4950279;29;20054;-89
2023/08/14 06:45:04;;;;;;;12.13;6.22;;;19.00;99.90;;;;;;4935577;29;20058;-87
2023/08/14 06:47:52;;;;;;;7.05;5.45;;;19.10;99.90;;;;;;4941747;28;20052;-85
2023/08/14 06:50:45;;;;;;;8.00;5.50;;;19.10;99.90;;;;;;4937029;29;20054;-86
2023/08/14 06:53:32;;;;;;;7.05;5.95;;;19.20;99.90;;;;;;4960466;28;20136;-86
2023/08/14 06:56:20;;;;;;;6.03;4.80;;;19.30;99.90;;;;;;4938028;29;20062;-86
2023/08/14 06:59:09;;;;;;;5.90;4.50;;;19.50;99.90;;;;;;4942712;28;20047;-84
2023/08/14 07:01:57;;;;;;;5.00;4.15;;;19.50;99.90;;;;;;4943410;29;20046;-85
2023/08/14 07:04:45;;;;;;;10.38;4.93;;;19.70;99.90;;;;;;4956863;28;20048;-87
2023/08/14 07:07:33;;;;;;;13.98;4.68;;;19.90;99.90;;;;;;4945563;28;20134;-86
2023/08/14 07:10:20;;;;;;;7.43;4.75;;;20.20;99.90;;;;;;4966030;28;20176;-85
2023/08/14 07:13:12;;;;;;;5.18;3.42;;;20.60;99.90;;;;;;5000183;28;20050;-85
2023/08/14 07:16:15;;;;;;;;;;;;;;;;;;;;;
2023/08/14 07:19:59;;;;;;;4.50;2.85;;;21.20;99.90;;;;;;5001157;28;20117;-86
2023/08/14 07:22:48;;;;;;;3.47;2.80;;;21.80;99.90;;;;;;4982374;28;20058;-87
2023/08/14 07:25:37;;;;;;;3.30;2.58;;;22.20;99.90;;;;;;4987230;28;20046;-91
2023/08/14 07:28:38;;;;;;;;;;;;;;;;;;;;;
2023/08/14 07:31:35;;;;;;;3.95;2.58;;;22.80;99.90;;;;;;4989745;28;20038;-89
2023/08/14 07:34:47;;;;;;;4.13;2.35;;;23.20;99.90;;;;;;5004117;28;20053;-91
2023/08/14 07:37:42;;;;;;;3.50;2.80;;;23.50;99.90;;;;;;4982830;28;20108;-91
2023/08/14 07:40:30;;;;;;;4.43;2.60;;;23.70;99.90;;;;;;5008761;28;20142;-90
2023/08/14 07:43:20;;;;;;;4.45;2.35;;;24.10;1.00;;;;;;4993712;28;20363;-88
2023/08/14 07:46:11;;;;;;;5.32;2.47;;;24.70;99.90;;;;;;4996570;28;20061;-90
2023/08/14 07:49:23;;;;;;;4.35;2.08;;;25.00;1.00;;;;;;4981805;28;20196;-89
2023/08/14 07:52:28;;;;;;;6.80;2.45;;;26.00;99.90;;;;;;4973489;28;20049;-88
2023/08/14 07:55:24;;;;;;;4.45;2.55;;;26.30;1.00;;;;;;4995755;28;20266;-89
2023/08/14 07:58:33;;;;;;;7.35;2.20;;;26.10;99.90;;;;;;4966365;28;20068;-88
2023/08/14 08:06:02;;;;;;;;;;;;;;;;;;;;;
2023/08/14 08:09:23;;;;;;;3.90;2.28;;;26.80;99.90;;;;;;4989264;28;20042;-88
2023/08/14 08:12:15;;;;;;;6.10;1.80;;;26.70;62.30;;;;;;4988425;28;20074;-87
2023/08/14 08:15:05;;;;;;;1.90;1.73;;;27.10;15.80;;;;;;4978656;28;20061;-87
2023/08/14 08:17:52;;;;;;;4.53;2.58;;;27.20;32.50;;;;;;4998126;28;20039;-90
2023/08/14 08:20:40;;;;;;;3.85;1.92;;;27.30;1.00;;;;;;4982150;28;20349;-89
2023/08/14 08:23:27;;;;;;;2.35;2.00;;;27.30;1.00;;;;;;4992736;28;20054;-87
2023/08/14 08:26:14;;;;;;;4.18;1.90;;;27.80;1.00;;;;;;4989355;28;20063;-90
2023/08/14 08:29:08;;;;;;;4.97;1.92;;;28.30;1.00;;;;;;4996379;28;20054;-89
2023/08/14 08:31:58;;;;;;;4.20;1.98;;;29.00;1.00;;;;;;4989087;28;20046;-90
2023/08/14 08:34:48;;;;;;;3.63;1.73;;;29.30;1.00;;;;;;4997185;28;20081;-88
2023/08/14 08:37:37;;;;;;;3.00;1.88;;;30.10;99.90;;;;;;5010568;28;20042;-88
2023/08/14 08:40:26;;;;;;;3.58;2.20;;;29.80;99.90;;;;;;5013221;28;20041;-89
2023/08/14 08:43:17;;;;;;;2.83;1.90;;;29.30;99.90;;;;;;4991962;28;20117;-89
2023/08/14 08:46:08;;;;;;;;;;;29.90;99.90;;;;;;4990694;28;20046;-90
2023/08/14 08:48:56;;;;;;;2.88;2.05;;;30.60;99.90;;;;;;4978822;28;20023;-88
2023/08/14 08:51:45;;;;;;;2.72;1.85;;;30.20;99.90;;;;;;4983319;28;20049;-88
2023/08/14 08:54:38;;;;;;;10.50;1.85;;;30.10;99.90;;;;;;4999606;28;20443;-89
2023/08/14 08:57:29;;;;;;;1.88;1.75;;;29.80;99.90;;;;;;4999126;28;21601;-89
2023/08/14 09:00:17;;;;;;;3.05;1.90;;;30.60;99.90;;;;;;4982226;28;20185;-86
2023/08/14 09:03:13;;;;;;;2.60;1.83;;;31.20;99.90;;;;;;4991691;28;20051;-89
2023/08/14 09:06:01;;;;;;;3.47;2.30;;;31.50;99.90;;;;;;4987412;28;20115;-94
2023/08/14 09:08:52;;;;;;;3.03;1.85;;;31.70;99.90;;;;;;5006942;28;20177;-95
2023/08/14 09:11:44;;;;;;;2.17;1.98;;;32.00;99.90;;;;;;5003075;28;20042;-89
2023/08/14 09:14:35;;;;;;;3.95;2.03;;;32.30;99.90;;;;;;5012402;28;20049;-92
2023/08/14 09:17:27;;;;;;;2.22;2.03;;;32.40;99.90;;;;;;5011934;28;20065;-93
2023/08/14 09:20:17;;;;;;;4.25;2.00;;;33.00;99.90;;;;;;5010121;28;20050;-90
2023/08/14 09:23:23;;;;;;;3.95;1.95;;;33.30;99.90;;;;;;4987762;28;20116;-88
2023/08/14 09:26:15;;;;;;;4.10;2.53;;;34.10;99.90;;;;;;4983884;28;20057;-86
2023/08/14 09:29:05;;;;;;;6.10;2.15;;;34.70;99.90;;;;;;5006108;28;20069;-87
2023/08/14 09:32:00;;;;;;;4.43;1.90;;;34.40;99.90;;;;;;4984325;28;20050;-88
2023/08/14 09:35:01;;;;;;;4.40;2.28;;;34.10;99.90;;;;;;4986517;28;20042;-87
2023/08/14 09:37:51;;;;;;;3.17;2.40;;;33.10;99.90;;;;;;4981825;28;20038;-87
2023/08/14 09:40:40;;;;;;;3.75;2.90;;;32.70;99.90;;;;;;4980334;28;20094;-86
2023/08/14 09:43:29;;;;;;;3.67;1.92;;;32.30;99.90;;;;;;4976014;28;20066;-87
2023/08/14 09:46:25;;;;;;;3.72;2.70;;;33.00;99.90;;;;;;4991820;28;20100;-88
2023/08/14 09:50:03;;;;;;;5.35;2.40;;;33.50;99.90;;;;;;4973335;28;20145;-88
2023/08/14 10:06:38;;;;;;;3.03;2.42;;;35.30;84.20;;;;;;5010029;28;20364;-90
2023/08/14 10:10:21;;;;;;;;;;;;;;;;;;;;;
2023/08/14 10:17:00;;;;;;;4.68;2.30;;;35.20;62.80;;;;;;4996166;28;20049;-91
2023/08/14 10:20:10;;;;;;;5.00;2.15;;;35.70;73.40;;;;;;5017727;28;20038;-90
2023/08/14 10:23:20;;;;;;;3.88;2.22;;;35.50;33.60;;;;;;4995215;28;20048;-87
2023/08/14 10:26:36;;;;;;;2.50;2.22;;;35.20;39.10;;;;;;5005909;28;20050;-87
2023/08/14 10:29:45;;;;;;;3.65;2.10;;;35.10;28.10;;;;;;5010396;28;20039;-90
2023/08/14 10:33:18;;;;;;;4.37;2.43;;;34.10;34.00;;;;;;5000995;28;20060;-89
2023/08/14 10:36:22;;;;;;;3.25;2.30;;;35.10;29.50;;;;;;4983617;28;20783;-90
2023/08/14 10:39:35;;;;;;;5.60;2.35;;;35.60;32.80;;;;;;5008004;28;20066;-90
2023/08/14 10:42:41;;;;;;;;;;;;;;;;;;;;;
2023/08/14 10:45:43;;;;;;;3.10;2.30;;;35.70;12.80;;;;;;5004010;28;20064;-88
2023/08/14 10:48:35;;;;;;;3.83;2.40;;;36.30;14.60;;;;;;5008747;28;20101;-90
2023/08/14 10:51:23;;;;;;;2.92;2.15;;;36.90;11.00;;;;;;4997524;28;20069;-92
2023/08/14 10:54:12;;;;;;;3.33;2.40;;;36.40;2.00;;;;;;4990851;28;20177;-92
2023/08/14 10:57:00;;;;;;;3.22;2.45;;;35.50;1.00;;;;;;4988367;28;20046;-90
2023/08/14 10:59:59;;;;;;;3.83;2.00;;;35.60;1.00;;;;;;4977195;28;20077;-89
2023/08/14 11:03:05;;;;;;;3.40;2.00;;;35.50;1.00;;;;;;4984716;28;20452;-89
2023/08/14 11:06:13;;;;;;;3.13;2.15;;;35.70;1.00;;;;;;4982947;28;20363;-89
2023/08/14 11:09:20;;;;;;;5.78;2.60;;;34.40;1.00;;;;;;4999358;28;20039;-89
2023/08/14 11:12:09;;;;;;;3.58;2.33;;;34.00;1.00;;;;;;4990312;28;20050;-92
2023/08/14 11:14:57;;;;;;;4.05;2.30;;;33.50;1.00;;;;;;4989947;28;20372;-91
2023/08/14 11:18:15;;;;;;;3.83;1.80;;;34.40;1.00;;;;;;5010515;28;20759;-90
2023/08/14 11:21:28;;;;;;;3.00;1.93;;;35.60;1.00;;;;;;4983714;28;20121;-91
2023/08/14 11:24:18;;;;;;;5.07;2.28;;;35.20;1.00;;;;;;4989057;28;20056;-89
2023/08/14 11:27:08;;;;;;;5.05;2.22;;;35.50;1.00;;;;;;5002239;28;20097;-91
2023/08/14 11:29:56;;;;;;;2.33;1.90;;;36.70;1.00;;;;;;4999581;28;20133;-90
2023/08/14 11:32:59;;;;;;;3.08;1.85;;;37.70;1.00;;;;;;4999016;28;20133;-88
2023/08/14 11:35:47;;;;;;;3.10;2.00;;;37.50;1.00;;;;;;4994526;28;20057;-90
2023/08/14 11:38:34;;;;;;;2.38;1.88;;;37.50;1.00;;;;;;5003279;28;20077;-90
2023/08/14 11:41:22;;;;;;;7.55;2.00;;;37.70;1.00;;;;;;5001682;28;20065;-89
2023/08/14 11:44:18;;;;;;;3.75;1.88;;;38.20;1.00;;;;;;4993236;28;20078;-87
2023/08/14 11:47:09;;;;;;;2.85;1.98;;;38.00;1.00;;;;;;4996158;28;20054;-88
2023/08/14 11:50:04;;;;;;;3.22;2.10;;;37.00;1.00;;;;;;4995772;28;20078;-89
2023/08/14 11:53:15;;;;;;;4.45;2.50;;;35.10;1.00;;;;;;5003737;28;20119;-91
2023/08/14 11:56:16;;;;;;;4.28;1.92;;;34.20;1.00;;;;;;4996362;28;20058;-89
2023/08/14 11:59:39;;;;;;;4.45;2.17;;;33.40;1.00;;;;;;4993758;28;20379;-90
2023/08/14 12:02:57;;;;;;;;;;;;;;;;;;;;;
2023/08/14 12:28:33;;;;;;;4.30;2.47;;;29.00;1.00;;;;;;4889789;29;20040;-93
2023/08/14 12:48:52;;;;;;;5.72;3.13;;;28.50;9.30;;;;;;4843899;29;20119;-90
2023/08/14 12:51:59;;;;;;;;;;;;;;;;;;;;;
2023/08/14 12:55:14;;;;;;;;;;;;;;;;;;;;;
2023/08/14 13:02:26;;;;;;;5.07;2.75;;;28.50;64.50;;;;;;4837873;29;20077;-91
2023/08/14 13:06:05;;;;;;;4.25;2.28;;;29.80;59.30;;;;;;4862314;29;20053;-91
2023/08/14 13:08:57;;;;;;;3.90;2.58;;;31.70;42.30;;;;;;4916081;29;20055;-90
2023/08/14 13:11:49;;;;;;;7.85;2.50;;;33.10;13.50;;;;;;4918050;29;20062;-90
2023/08/14 13:19:31;;;;;;;;;;;;;;;;;;;;;
2023/08/14 13:32:02;;;;;;;;;;;;;;;;;;;;;
2023/08/14 13:43:23;;;;;;;5.32;2.30;;;37.20;1.00;;;;;;4871113;29;20041;-90
2023/08/14 14:05:38;;;;;;;;;;;;;;;;;;;;;
2023/08/14 14:09:12;;;;;;;4.18;2.45;;;32.30;1.00;;;;;;4789601;29;20095;-90
2023/08/14 14:12:32;;;;;;;;;;;;;;;;;;;;;
2023/08/14 14:16:37;;;;;;;;;;;;;;;;;;;;;
2023/08/14 14:45:32;;;;;;;6.05;3.65;;;27.90;99.90;;;;;;4992462;28;20034;-92
2023/08/14 15:22:37;;;;;;;5.95;3.13;;;35.00;1.00;;;;;;4827452;29;20958;-90
2023/08/14 15:25:38;;;;;;;5.88;2.80;;;35.10;1.00;;;;;;4844982;29;20049;-93
2023/08/14 15:28:25;;;;;;;3.78;2.88;;;35.90;1.00;;;;;;4875302;28;20052;-91
2023/08/14 15:31:13;;;;;;;3.90;2.88;;;36.00;1.00;;;;;;5010573;28;20046;-93
2023/08/14 15:34:03;;;;;;;4.13;2.47;;;36.20;1.00;;;;;;5006059;28;20042;-92
2023/08/14 15:36:54;;;;;;;4.22;2.70;;;36.40;1.00;;;;;;4982549;28;20172;-94
2023/08/14 15:39:41;;;;;;;4.55;3.13;;;36.90;1.00;;;;;;5007970;28;20120;-92
2023/08/14 15:42:43;;;;;;;4.03;2.80;;;36.60;1.00;;;;;;4994980;28;20034;-92
2023/08/14 15:46:02;;;;;;;3.35;2.72;;;36.70;1.00;;;;;;4992495;28;20055;-92
2023/08/14 15:48:52;;;;;;;4.05;3.00;;;35.00;1.00;;;;;;5009539;28;20042;-92
2023/08/14 15:51:40;;;;;;;4.90;2.80;;;34.40;1.00;;;;;;5004364;28;20049;-90
2023/08/14 15:54:27;;;;;;;5.50;2.90;;;34.30;1.00;;;;;;5015048;28;20098;-91
2023/08/14 15:57:56;;;;;;;3.58;2.50;;;34.40;1.00;;;;;;4983907;28;20127;-89
2023/08/14 16:00:43;;;;;;;3.53;2.72;;;34.40;1.00;;;;;;5007725;28;20042;-89
2023/08/14 16:03:31;;;;;;;7.43;2.85;;;34.70;1.00;;;;;;5004079;28;20057;-88
2023/08/14 16:06:18;;;;;;;5.15;2.78;;;35.10;1.00;;;;;;4994330;28;20100;-89
2023/08/14 16:09:06;;;;;;;6.60;2.72;;;34.80;1.00;;;;;;5001394;28;20116;-91
2023/08/14 16:11:56;;;;;;;3.72;2.78;;;35.20;1.00;;;;;;4996775;28;20050;-91
2023/08/14 16:14:43;;;;;;;5.90;3.00;;;35.30;1.00;;;;;;5006975;28;20125;-90
2023/08/14 16:17:33;;;;;;;4.28;2.55;;;35.20;1.00;;;;;;4989988;28;20049;-89
2023/08/14 16:20:20;;;;;;;3.65;2.80;;;34.80;1.00;;;;;;4987137;28;20735;-90
2023/08/14 16:23:08;;;;;;;4.63;2.25;;;34.50;1.00;;;;;;5009492;28;20042;-89
2023/08/14 16:25:55;;;;;;;6.60;2.60;;;34.00;1.00;;;;;;4992125;28;20209;-89
2023/08/14 16:28:42;;;;;;;4.03;2.50;;;34.40;1.00;;;;;;4987578;28;20051;-88
2023/08/14 16:31:30;;;;;;;2.80;2.17;;;34.10;1.00;;;;;;4981854;28;20053;-89
2023/08/14 16:34:17;;;;;;;3.67;2.45;;;33.40;1.00;;;;;;4989986;28;20129;-89
2023/08/14 16:37:05;;;;;;;3.47;2.40;;;32.40;1.00;;;;;;4966930;28;20050;-90
2023/08/14 16:39:55;;;;;;;5.30;2.75;;;31.70;1.00;;;;;;4977280;28;20051;-91
2023/08/14 16:42:42;;;;;;;6.75;2.60;;;31.00;1.00;;;;;;4972812;28;20042;-89
2023/08/14 16:45:30;;;;;;;4.15;2.60;;;30.60;1.00;;;;;;4977315;28;20146;-89
2023/08/14 16:48:19;;;;;;;4.07;2.70;;;30.00;1.00;;;;;;4979021;28;20157;-89
2023/08/14 16:51:06;;;;;;;5.07;2.60;;;29.70;1.00;;;;;;4976508;28;20396;-90
2023/08/14 16:53:54;;;;;;;4.43;2.80;;;29.30;1.00;;;;;;4993535;28;20050;-88
2023/08/14 16:56:44;;;;;;;4.35;2.95;;;29.20;1.00;;;;;;4991904;28;20042;-90
2023/08/14 16:59:33;;;;;;;3.30;2.72;;;29.00;1.00;;;;;;4973015;28;20050;-88
2023/08/14 17:02:21;;;;;;;5.32;2.80;;;28.90;1.00;;;;;;4986104;28;20053;-87
2023/08/14 17:05:14;;;;;;;4.38;2.50;;;28.60;1.00;;;;;;4978029;28;20084;-89
2023/08/14 17:08:01;;;;;;;5.47;2.90;;;28.40;1.00;;;;;;4969261;28;20058;-87
2023/08/14 17:10:50;;;;;;;6.30;2.83;;;28.20;1.00;;;;;;4981512;28;20062;-90
2023/08/14 17:13:38;;;;;;;4.20;2.72;;;27.90;1.00;;;;;;4978415;28;20073;-90
2023/08/14 17:16:25;;;;;;;5.55;3.35;;;27.70;1.00;;;;;;4989163;28;20046;-89
2023/08/14 17:19:13;;;;;;;6.55;2.80;;;27.40;1.00;;;;;;4960221;28;20482;-88
2023/08/14 17:22:01;;;;;;;6.95;2.85;;;27.30;14.70;;;;;;4984938;28;20058;-88
2023/08/14 17:24:53;;;;;;;3.95;3.00;;;27.20;27.90;;;;;;4977574;28;20042;-88
2023/08/14 17:27:42;;;;;;;4.43;3.05;;;27.10;42.30;;;;;;5006782;28;20050;-88
2023/08/14 17:30:29;;;;;;;4.32;2.92;;;27.00;51.90;;;;;;4988532;28;20061;-88
2023/08/14 17:33:17;;;;;;;3.28;2.97;;;27.00;55.90;;;;;;4984657;28;20082;-90
2023/08/14 17:36:04;;;;;;;4.60;2.90;;;26.80;94.80;;;;;;5003488;28;20042;-91
2023/08/14 17:38:52;;;;;;;8.57;3.60;;;26.80;99.90;;;;;;4989516;28;20155;-88
2023/08/14 17:41:40;;;;;;;4.35;3.20;;;26.60;99.90;;;;;;4997114;28;20038;-87
2023/08/14 17:44:27;;;;;;;4.93;3.13;;;26.50;99.90;;;;;;5007044;28;20093;-91
2023/08/14 17:47:15;;;;;;;5.68;3.35;;;26.40;99.90;;;;;;5004220;28;20056;-87
2023/08/14 17:50:02;;;;;;;4.00;2.97;;;26.30;99.90;;;;;;5006440;28;20086;-88
2023/08/14 17:52:52;;;;;;;9.68;3.83;;;26.20;99.90;;;;;;4993545;28;20055;-91
2023/08/14 17:55:39;;;;;;;4.50;3.00;;;26.00;99.90;;;;;;5005708;28;20046;-91
2023/08/14 17:58:27;;;;;;;5.35;3.10;;;25.90;99.90;;;;;;4994152;28;20712;-89
2023/08/14 18:01:17;;;;;;;5.80;3.63;;;25.90;99.90;;;;;;4982176;28;20054;-89
2023/08/14 18:04:05;;;;;;;4.32;3.30;;;25.80;99.90;;;;;;5013392;28;20101;-88
2023/08/14 18:06:53;;;;;;;6.38;3.60;;;25.70;99.90;;;;;;5019248;28;20054;-91
2023/08/14 18:09:41;;;;;;;4.20;3.50;;;25.70;99.90;;;;;;5000740;28;20043;-89